Terminal Aerodrome Forecast
Issued by NWS

Home | Current Version | Previous Version | Graphics & Text | Print | Product List | Glossary On
Versions: 1 2 3 4 5 6 7 8 9 10 11 12 13 14 15
000
FTUS41 KCLE 142323
TAFFDY
TAF
KFDY 142323Z 1500/1524 16005KT P6SM SCT060 BKN200
      TEMPO 1510/1512 6SM BR
     FM151600 26008KT P6SM BKN040=

USA.gov is the U.S. government's official web portal to all federal, state and local government web resources and services.